No particular awareness of the weather is required.    There are no Weather-warnings


Meteo18 Weather Cam more information Meteo18 Weather Cam


Thunder radar more information blitzortung!


Rain radar more information rain snow radar


Visit our other weather sites:

Template documentation
and downloads

And another site



Weather Underground History page Text

Daily Summary for February 20, 2018 Units:  Both    English   Metric
« Previous Day
Next Day »
Daily Weekly Monthly Yearly Custom
  High: Low: Average:
Temperature: TemperatureC °F /  -17.8 °C 2.3 °F /  -16.5 °C 4 °F /  -15.6 °C
Dew Point: DewpointC °F /  -17.8 °C -0.2 °F /  -17.9 °C 2.7 °F /  -16.3 °C
Humidity: Humidity % 75 % 91 %
Wind Speed: WindSpeedKMH mph /  0 km/h - 4.4 mph /  7.1 km/h
Wind Gust: WindSpeedGustKMH mph /  0 km/h - -
Wind:- - SSE
Pressure: PressurehPa in /  0 hPa 1013.4 in /  34313.7 hPa -
Precipitation: 2.3 in /  58.42 mm    
Historical Graphs
 
 
Tabular Data for February 20, 2018
Time Temperature Dew Point Pressure Wind Wind Speed Wind Gust Humidity Rainfall Rate (Hourly)
TemperatureC °F /  -17.8 °C DewpointC °F /  -17.8 °C PressurehPa in /  0 hPa Calm     Humidity % HourlyPrecipMM in /  0 mm
00:00 4.0 °F /  -15.6 °C 3.4 °F /  -15.9 °C 1015.5 in /  34384.8 hPa Calm     96 % 0.5 in /  12.7 mm
00:06 4.0 °F /  -15.6 °C 3.4 °F /  -15.9 °C 1015.5 in /  34384.8 hPa Calm   1.6 mph /  2.6 km/h 96 % 0.5 in /  12.7 mm
00:12 4.0 °F /  -15.6 °C 3.4 °F /  -15.9 °C 1015.5 in /  34384.8 hPa Calm   1.6 mph /  2.6 km/h 96 % 0.5 in /  12.7 mm
00:18 3.9 °F /  -15.6 °C 3.3 °F /  -15.9 °C 1015.5 in /  34384.8 hPa Calm   3.2 mph /  5.1 km/h 96 % 0.5 in /  12.7 mm
00:24 3.9 °F /  -15.6 °C 3.5 °F /  -15.8 °C 1015.5 in /  34384.8 hPa South 1.4 mph /  2.3 km/h 3.2 mph /  5.1 km/h 97 % 0.5 in /  12.7 mm
00:30 3.9 °F /  -15.6 °C 3.5 °F /  -15.8 °C 1015.5 in /  34384.8 hPa SSW 1.4 mph /  2.3 km/h 1.6 mph /  2.6 km/h 97 % 0.5 in /  12.7 mm
00:36 3.9 °F /  -15.6 °C 3.5 °F /  -15.8 °C 1015.5 in /  34384.8 hPa Calm   4.8 mph /  7.7 km/h 97 % 0.5 in /  12.7 mm
00:42 3.9 °F /  -15.6 °C 3.5 °F /  -15.8 °C 1015.5 in /  34384.8 hPa SSE 1.4 mph /  2.3 km/h 1.6 mph /  2.6 km/h 97 % 0.5 in /  12.7 mm
00:48 3.9 °F /  -15.6 °C 3.5 °F /  -15.8 °C 1015.5 in /  34384.8 hPa Calm   3.2 mph /  5.1 km/h 97 % 0.5 in /  12.7 mm
00:54 3.9 °F /  -15.6 °C 3.5 °F /  -15.8 °C 1015.5 in /  34384.8 hPa Calm   6.4 mph /  10.3 km/h 97 % 0.5 in /  12.7 mm
01:00 3.9 °F /  -15.6 °C 3.5 °F /  -15.8 °C 1015.5 in /  34384.8 hPa SSE 3.2 mph /  5.1 km/h 3.2 mph /  5.1 km/h 97 % 0.5 in /  12.7 mm
01:06 3.9 °F /  -15.6 °C 3.5 °F /  -15.8 °C 1015.5 in /  34384.8 hPa Calm   1.6 mph /  2.6 km/h 97 % 0.5 in /  12.7 mm
01:12 3.8 °F /  -15.7 °C 3.4 °F /  -15.9 °C 1015.1 in /  34371.3 hPa SE 1.4 mph /  2.3 km/h 3.2 mph /  5.1 km/h 97 % 0.5 in /  12.7 mm
01:18 3.8 °F /  -15.7 °C 3.4 °F /  -15.9 °C 1015.1 in /  34371.3 hPa SE 1.4 mph /  2.3 km/h 3.2 mph /  5.1 km/h 97 % 0.5 in /  12.7 mm
01:24 3.7 °F /  -15.7 °C 3.3 °F /  -15.9 °C 1015.1 in /  34371.3 hPa SSE 1.4 mph /  2.3 km/h 1.6 mph /  2.6 km/h 97 % 0.5 in /  12.7 mm
01:30 3.7 °F /  -15.7 °C 3.3 °F /  -15.9 °C 1015.1 in /  34371.3 hPa Calm   3.2 mph /  5.1 km/h 97 % 0.5 in /  12.7 mm
01:36 3.7 °F /  -15.7 °C 3.3 °F /  -15.9 °C 1015.1 in /  34371.3 hPa SW 3.2 mph /  5.1 km/h 3.2 mph /  5.1 km/h 97 % 0.5 in /  12.7 mm
01:42 3.7 °F /  -15.7 °C 3.3 °F /  -15.9 °C 1014.8 in /  34361.1 hPa Calm   1.6 mph /  2.6 km/h 97 % 0.5 in /  12.7 mm
01:48 3.7 °F /  -15.7 °C 3.3 °F /  -15.9 °C 1014.8 in /  34361.1 hPa SE 1.4 mph /  2.3 km/h 3.2 mph /  5.1 km/h 97 % 0.5 in /  12.7 mm
01:54 3.6 °F /  -15.8 °C 3.2 °F /  -16 °C 1014.8 in /  34361.1 hPa SE 1.4 mph /  2.3 km/h 6.4 mph /  10.3 km/h 97 % 0.5 in /  12.7 mm
02:00 3.6 °F /  -15.8 °C 3.2 °F /  -16 °C 1014.4 in /  34347.6 hPa SE 3.2 mph /  5.1 km/h 3.2 mph /  5.1 km/h 97 % 0.5 in /  12.7 mm
02:06 3.6 °F /  -15.8 °C 3.2 °F /  -16 °C 1014.4 in /  34347.6 hPa South 3.2 mph /  5.1 km/h 3.2 mph /  5.1 km/h 97 % 0.5 in /  12.7 mm
02:12 3.6 °F /  -15.8 °C 3.2 °F /  -16 °C 1014.4 in /  34347.6 hPa Calm   4.8 mph /  7.7 km/h 97 % 0.5 in /  12.7 mm
02:18 3.5 °F /  -15.8 °C 3.1 °F /  -16.1 °C 1014.4 in /  34347.6 hPa SSE 3.2 mph /  5.1 km/h 3.2 mph /  5.1 km/h 97 % 0.5 in /  12.7 mm
02:24 3.5 °F /  -15.8 °C 3.1 °F /  -16.1 °C 1014.4 in /  34347.6 hPa SSE 3.2 mph /  5.1 km/h 3.2 mph /  5.1 km/h 97 % 0.5 in /  12.7 mm
02:30 3.5 °F /  -15.8 °C 3.1 °F /  -16.1 °C 1014.4 in /  34347.6 hPa Calm   1.6 mph /  2.6 km/h 97 % 0.5 in /  12.7 mm
02:36 3.5 °F /  -15.8 °C 3.1 °F /  -16.1 °C 1014.4 in /  34347.6 hPa Calm   3.2 mph /  5.1 km/h 97 % 0.5 in /  12.7 mm
02:43 3.5 °F /  -15.8 °C 3.1 °F /  -16.1 °C 1014.4 in /  34347.6 hPa Calm   4.8 mph /  7.7 km/h 97 % 0.5 in /  12.7 mm
02:49 3.4 °F /  -15.9 °C 3.0 °F /  -16.1 °C 1014.4 in /  34347.6 hPa Calm   4.8 mph /  7.7 km/h 97 % 0.5 in /  12.7 mm
02:55 3.4 °F /  -15.9 °C 3.0 °F /  -16.1 °C 1014.4 in /  34347.6 hPa SE 3.2 mph /  5.1 km/h 4.8 mph /  7.7 km/h 97 % 0.3 in /  7.62 mm
03:01 3.5 °F /  -15.8 °C 3.1 °F /  -16.1 °C 1014.4 in /  34347.6 hPa South 1.4 mph /  2.3 km/h 1.6 mph /  2.6 km/h 97 % 0.5 in /  12.7 mm
03:07 3.4 °F /  -15.9 °C 3.0 °F /  -16.1 °C 1014.4 in /  34347.6 hPa SSE 1.4 mph /  2.3 km/h 3.2 mph /  5.1 km/h 97 % 0.5 in /  12.7 mm
03:13 3.4 °F /  -15.9 °C 3.0 °F /  -16.1 °C 1014.4 in /  34347.6 hPa South 1.4 mph /  2.3 km/h 1.6 mph /  2.6 km/h 97 % 0.5 in /  12.7 mm
03:19 3.4 °F /  -15.9 °C 3.0 °F /  -16.1 °C 1014.4 in /  34347.6 hPa Calm   1.6 mph /  2.6 km/h 97 % 0.5 in /  12.7 mm
03:25 3.5 °F /  -15.8 °C 3.1 °F /  -16.1 °C 1014.1 in /  34337.4 hPa Calm   3.2 mph /  5.1 km/h 97 % 0.5 in /  12.7 mm
03:31 3.4 °F /  -15.9 °C 3.0 °F /  -16.1 °C 1014.1 in /  34337.4 hPa SSE 3.2 mph /  5.1 km/h 4.8 mph /  7.7 km/h 97 % 0.3 in /  7.62 mm
03:37 3.5 °F /  -15.8 °C 3.1 °F /  -16.1 °C 1014.1 in /  34337.4 hPa Calm   3.2 mph /  5.1 km/h 97 % 0.3 in /  7.62 mm
03:43 3.5 °F /  -15.8 °C 3.1 °F /  -16.1 °C 1014.1 in /  34337.4 hPa SE 1.4 mph /  2.3 km/h 1.6 mph /  2.6 km/h 97 % 0.3 in /  7.62 mm
03:49 3.5 °F /  -15.8 °C 3.1 °F /  -16.1 °C 1014.1 in /  34337.4 hPa SE 1.4 mph /  2.3 km/h 3.2 mph /  5.1 km/h 97 % 0.5 in /  12.7 mm
03:55 3.4 °F /  -15.9 °C 3.0 °F /  -16.1 °C 1014.1 in /  34337.4 hPa Calm   1.6 mph /  2.6 km/h 97 % 0.5 in /  12.7 mm
04:01 3.4 °F /  -15.9 °C 3.0 °F /  -16.1 °C 1014.1 in /  34337.4 hPa Calm     97 % 0.3 in /  7.62 mm
04:07 3.4 °F /  -15.9 °C 3.0 °F /  -16.1 °C 1014.1 in /  34337.4 hPa Calm     97 % 0.3 in /  7.62 mm
04:13 3.4 °F /  -15.9 °C 3.0 °F /  -16.1 °C 1014.1 in /  34337.4 hPa Calm   1.6 mph /  2.6 km/h 97 % 0.3 in /  7.62 mm
04:19 3.4 °F /  -15.9 °C 3.0 °F /  -16.1 °C 1014.1 in /  34337.4 hPa Calm   1.6 mph /  2.6 km/h 97 % 0.5 in /  12.7 mm
04:25 3.4 °F /  -15.9 °C 3.0 °F /  -16.1 °C 1014.1 in /  34337.4 hPa Calm   1.6 mph /  2.6 km/h 97 % 0.5 in /  12.7 mm
04:31 3.4 °F /  -15.9 °C 3.0 °F /  -16.1 °C 1014.1 in /  34337.4 hPa Calm   1.6 mph /  2.6 km/h 97 % 0.5 in /  12.7 mm
04:37 3.4 °F /  -15.9 °C 3.0 °F /  -16.1 °C 1014.1 in /  34337.4 hPa Calm     97 % 0.5 in /  12.7 mm
04:43 3.4 °F /  -15.9 °C 3.0 °F /  -16.1 °C 1014.1 in /  34337.4 hPa Calm     97 % 0.5 in /  12.7 mm
04:49 3.4 °F /  -15.9 °C 3.0 °F /  -16.1 °C 1014.1 in /  34337.4 hPa Calm     97 % 0.3 in /  7.62 mm
04:55 3.4 °F /  -15.9 °C 3.0 °F /  -16.1 °C 1013.8 in /  34327.3 hPa Calm     97 % 0.5 in /  12.7 mm
05:01 3.4 °F /  -15.9 °C 3.0 °F /  -16.1 °C 1014.1 in /  34337.4 hPa Calm     97 % 0.5 in /  12.7 mm
05:07 3.4 °F /  -15.9 °C 3.0 °F /  -16.1 °C 1013.8 in /  34327.3 hPa Calm     97 % 0.5 in /  12.7 mm
05:13 3.4 °F /  -15.9 °C 3.0 °F /  -16.1 °C 1013.8 in /  34327.3 hPa Calm   3.2 mph /  5.1 km/h 97 % 0.5 in /  12.7 mm
05:19 3.4 °F /  -15.9 °C 3.0 °F /  -16.1 °C 1013.8 in /  34327.3 hPa Calm   1.6 mph /  2.6 km/h 97 % 0.3 in /  7.62 mm
05:26 3.3 °F /  -15.9 °C 2.9 °F /  -16.2 °C 1013.8 in /  34327.3 hPa Calm   3.2 mph /  5.1 km/h 97 % 0.3 in /  7.62 mm
05:32 3.3 °F /  -15.9 °C 2.9 °F /  -16.2 °C 1013.8 in /  34327.3 hPa SE 1.4 mph /  2.3 km/h 3.2 mph /  5.1 km/h 97 % 0.3 in /  7.62 mm
05:38 3.2 °F /  -16 °C 2.8 °F /  -16.2 °C 1013.8 in /  34327.3 hPa SE 1.4 mph /  2.3 km/h 3.2 mph /  5.1 km/h 97 % 0.3 in /  7.62 mm
05:44 3.2 °F /  -16 °C 2.8 °F /  -16.2 °C 1013.8 in /  34327.3 hPa ESE 1.4 mph /  2.3 km/h 1.6 mph /  2.6 km/h 97 % 0.3 in /  7.62 mm
05:50 3.2 °F /  -16 °C 2.8 °F /  -16.2 °C 1013.8 in /  34327.3 hPa Calm     97 % 0.3 in /  7.62 mm
05:56 3.2 °F /  -16 °C 2.8 °F /  -16.2 °C 1013.8 in /  34327.3 hPa Calm     97 % 0.0 in /  0 mm
06:02 3.2 °F /  -16 °C 2.8 °F /  -16.2 °C 1014.1 in /  34337.4 hPa Calm     97 % 0.0 in /  0 mm
06:08 3.1 °F /  -16.1 °C 2.7 °F /  -16.3 °C 1014.1 in /  34337.4 hPa Calm     97 % 0.0 in /  0 mm
06:14 3.1 °F /  -16.1 °C 2.7 °F /  -16.3 °C 1013.8 in /  34327.3 hPa Calm     97 % 0.0 in /  0 mm
06:20 3.1 °F /  -16.1 °C 2.7 °F /  -16.3 °C 1013.8 in /  34327.3 hPa Calm     97 % 0.0 in /  0 mm
06:26 3.0 °F /  -16.1 °C 2.6 °F /  -16.3 °C 1013.8 in /  34327.3 hPa East 1.4 mph /  2.3 km/h 3.2 mph /  5.1 km/h 97 % 0.0 in /  0 mm
06:32 2.9 °F /  -16.2 °C 2.5 °F /  -16.4 °C 1013.8 in /  34327.3 hPa Calm     97 % 0.0 in /  0 mm
06:38 2.9 °F /  -16.2 °C 2.5 °F /  -16.4 °C 1013.8 in /  34327.3 hPa Calm   1.6 mph /  2.6 km/h 97 % 0.0 in /  0 mm
06:44 2.9 °F /  -16.2 °C 2.5 °F /  -16.4 °C 1013.8 in /  34327.3 hPa Calm     97 % 0.0 in /  0 mm
06:50 2.9 °F /  -16.2 °C 2.5 °F /  -16.4 °C 1013.4 in /  34313.7 hPa Calm     97 % 0.3 in /  7.62 mm
06:56 2.9 °F /  -16.2 °C 2.5 °F /  -16.4 °C 1013.8 in /  34327.3 hPa Calm   1.6 mph /  2.6 km/h 97 % 0.3 in /  7.62 mm
07:02 2.9 °F /  -16.2 °C 2.5 °F /  -16.4 °C 1013.8 in /  34327.3 hPa Calm     97 % 0.3 in /  7.62 mm
07:08 2.9 °F /  -16.2 °C 2.5 °F /  -16.4 °C 1013.8 in /  34327.3 hPa East 1.4 mph /  2.3 km/h 1.6 mph /  2.6 km/h 97 % 0.3 in /  7.62 mm
07:14 2.9 °F /  -16.2 °C 2.5 °F /  -16.4 °C 1014.1 in /  34337.4 hPa Calm   1.6 mph /  2.6 km/h 97 % 0.3 in /  7.62 mm
07:20 2.9 °F /  -16.2 °C 2.5 °F /  -16.4 °C 1014.1 in /  34337.4 hPa Calm   1.6 mph /  2.6 km/h 97 % 0.3 in /  7.62 mm
07:26 2.9 °F /  -16.2 °C 2.5 °F /  -16.4 °C 1014.1 in /  34337.4 hPa East 1.4 mph /  2.3 km/h 1.6 mph /  2.6 km/h 97 % 0.3 in /  7.62 mm
07:32 2.9 °F /  -16.2 °C 2.5 °F /  -16.4 °C 1014.1 in /  34337.4 hPa ENE 4.7 mph /  7.6 km/h 4.8 mph /  7.7 km/h 97 % 0.3 in /  7.62 mm
07:38 2.9 °F /  -16.2 °C 2.5 °F /  -16.4 °C 1014.1 in /  34337.4 hPa ENE 1.4 mph /  2.3 km/h 4.8 mph /  7.7 km/h 97 % 0.3 in /  7.62 mm
07:44 2.9 °F /  -16.2 °C 2.6 °F /  -16.3 °C 1014.1 in /  34337.4 hPa East 3.2 mph /  5.1 km/h 6.4 mph /  10.3 km/h 98 % 0.3 in /  7.62 mm
07:50 2.9 °F /  -16.2 °C 2.6 °F /  -16.3 °C 1014.1 in /  34337.4 hPa Calm   3.2 mph /  5.1 km/h 98 % 0.0 in /  0 mm
07:56 2.9 °F /  -16.2 °C 2.6 °F /  -16.3 °C 1014.4 in /  34347.6 hPa East 1.4 mph /  2.3 km/h 1.6 mph /  2.6 km/h 98 % 0.0 in /  0 mm
08:02 2.9 °F /  -16.2 °C 2.6 °F /  -16.3 °C 1014.4 in /  34347.6 hPa East 1.4 mph /  2.3 km/h 1.6 mph /  2.6 km/h 98 % 0.0 in /  0 mm
08:08 2.9 °F /  -16.2 °C 2.6 °F /  -16.3 °C 1014.4 in /  34347.6 hPa East 3.2 mph /  5.1 km/h 3.2 mph /  5.1 km/h 98 % 0.0 in /  0 mm
08:14 2.9 °F /  -16.2 °C 2.6 °F /  -16.3 °C 1014.4 in /  34347.6 hPa ENE 1.4 mph /  2.3 km/h 3.2 mph /  5.1 km/h 98 % 0.0 in /  0 mm
08:20 3.0 °F /  -16.1 °C 2.7 °F /  -16.3 °C 1014.8 in /  34361.1 hPa East 1.4 mph /  2.3 km/h 3.2 mph /  5.1 km/h 98 % 0.0 in /  0 mm
08:26 3.0 °F /  -16.1 °C 2.7 °F /  -16.3 °C 1014.4 in /  34347.6 hPa ENE 3.2 mph /  5.1 km/h 4.8 mph /  7.7 km/h 98 % 0.0 in /  0 mm
08:32 3.1 °F /  -16.1 °C 2.8 °F /  -16.2 °C 1014.8 in /  34361.1 hPa ENE 1.4 mph /  2.3 km/h 4.8 mph /  7.7 km/h 98 % 0.3 in /  7.62 mm
08:38 3.1 °F /  -16.1 °C 2.8 °F /  -16.2 °C 1014.8 in /  34361.1 hPa NE 1.4 mph /  2.3 km/h 4.8 mph /  7.7 km/h 98 % 0.3 in /  7.62 mm
08:44 3.1 °F /  -16.1 °C 2.8 °F /  -16.2 °C 1014.8 in /  34361.1 hPa ENE 4.7 mph /  7.6 km/h 6.4 mph /  10.3 km/h 98 % 0.3 in /  7.62 mm
08:50 3.1 °F /  -16.1 °C 2.8 °F /  -16.2 °C 1015.1 in /  34371.3 hPa NE 1.4 mph /  2.3 km/h 4.8 mph /  7.7 km/h 98 % 0.3 in /  7.62 mm
08:56 3.1 °F /  -16.1 °C 2.8 °F /  -16.2 °C 1015.1 in /  34371.3 hPa NE 3.2 mph /  5.1 km/h 4.8 mph /  7.7 km/h 98 % 0.3 in /  7.62 mm
09:02 3.1 °F /  -16.1 °C 2.8 °F /  -16.2 °C 1015.1 in /  34371.3 hPa NE 6.4 mph /  10.3 km/h 6.4 mph /  10.3 km/h 98 % 0.3 in /  7.62 mm
09:08 3.1 °F /  -16.1 °C 2.8 °F /  -16.2 °C 1015.1 in /  34371.3 hPa NNE 4.7 mph /  7.6 km/h 9.7 mph /  15.6 km/h 98 % 0.3 in /  7.62 mm
09:14 3.2 °F /  -16 °C 2.9 °F /  -16.2 °C 1015.5 in /  34384.8 hPa ENE 4.7 mph /  7.6 km/h 11.3 mph /  18.2 km/h 98 % 0.3 in /  7.62 mm
09:20 3.2 °F /  -16 °C 2.9 °F /  -16.2 °C 1015.1 in /  34371.3 hPa NE 11.1 mph /  17.9 km/h 14.5 mph /  23.3 km/h 98 % 0.3 in /  7.62 mm
09:26 3.2 °F /  -16 °C 2.9 °F /  -16.2 °C 1015.5 in /  34384.8 hPa NNE 4.7 mph /  7.6 km/h 9.7 mph /  15.6 km/h 98 % 0.3 in /  7.62 mm
09:32 3.2 °F /  -16 °C 2.9 °F /  -16.2 °C 1015.5 in /  34384.8 hPa NE 6.4 mph /  10.3 km/h 9.7 mph /  15.6 km/h 98 % 0.0 in /  0 mm
09:38 3.2 °F /  -16 °C 2.9 °F /  -16.2 °C 1015.5 in /  34384.8 hPa NNE 6.4 mph /  10.3 km/h 9.7 mph /  15.6 km/h 98 % 0.0 in /  0 mm
09:50 3.2 °F /  -16 °C 2.9 °F /  -16.2 °C 1015.8 in /  34395 hPa NE 6.4 mph /  10.3 km/h 9.7 mph /  15.6 km/h 98 % 0.0 in /  0 mm
09:56 3.2 °F /  -16 °C 2.9 °F /  -16.2 °C 1015.8 in /  34395 hPa NE 6.4 mph /  10.3 km/h 8.0 mph /  12.9 km/h 98 % 0.0 in /  0 mm
10:02 3.3 °F /  -15.9 °C 3.0 °F /  -16.1 °C 1016.1 in /  34405.1 hPa North 4.7 mph /  7.6 km/h 6.4 mph /  10.3 km/h 98 % 0.0 in /  0 mm
10:08 3.3 °F /  -15.9 °C 3.0 °F /  -16.1 °C 1016.1 in /  34405.1 hPa East 3.2 mph /  5.1 km/h 8.0 mph /  12.9 km/h 98 % 0.0 in /  0 mm
10:14 3.2 °F /  -16 °C 2.9 °F /  -16.2 °C 1015.8 in /  34395 hPa NE 9.7 mph /  15.6 km/h 14.5 mph /  23.3 km/h 98 % 0.0 in /  0 mm
10:20 3.2 °F /  -16 °C 2.9 °F /  -16.2 °C 1015.8 in /  34395 hPa North 6.4 mph /  10.3 km/h 11.3 mph /  18.2 km/h 98 % 0.0 in /  0 mm
10:26 3.2 °F /  -16 °C 2.9 °F /  -16.2 °C 1015.8 in /  34395 hPa NNE 9.7 mph /  15.6 km/h 11.3 mph /  18.2 km/h 98 % 0.0 in /  0 mm
10:32 3.2 °F /  -16 °C 2.9 °F /  -16.2 °C 1015.8 in /  34395 hPa NNE 3.2 mph /  5.1 km/h 9.7 mph /  15.6 km/h 98 % 0.0 in /  0 mm
10:38 3.2 °F /  -16 °C 2.9 °F /  -16.2 °C 1015.8 in /  34395 hPa NNE 4.7 mph /  7.6 km/h 11.3 mph /  18.2 km/h 98 % 0.0 in /  0 mm
10:44 3.2 °F /  -16 °C 2.9 °F /  -16.2 °C 1015.8 in /  34395 hPa NE 3.2 mph /  5.1 km/h 14.5 mph /  23.3 km/h 98 % 0.0 in /  0 mm
10:50 3.3 °F /  -15.9 °C 3.0 °F /  -16.1 °C 1015.8 in /  34395 hPa NNE 3.2 mph /  5.1 km/h 9.7 mph /  15.6 km/h 98 % 0.0 in /  0 mm
10:56 3.3 °F /  -15.9 °C 3.0 °F /  -16.1 °C 1015.8 in /  34395 hPa North 4.7 mph /  7.6 km/h 9.7 mph /  15.6 km/h 98 % 0.0 in /  0 mm
11:02 3.4 °F /  -15.9 °C 3.1 °F /  -16.1 °C 1015.8 in /  34395 hPa NE 7.9 mph /  12.7 km/h 9.7 mph /  15.6 km/h 98 % 0.0 in /  0 mm
11:08 3.4 °F /  -15.9 °C 3.1 °F /  -16.1 °C 1016.1 in /  34405.1 hPa ENE 9.7 mph /  15.6 km/h 14.5 mph /  23.3 km/h 98 % 0.0 in /  0 mm
11:14 3.6 °F /  -15.8 °C 3.3 °F /  -15.9 °C 1016.1 in /  34405.1 hPa ENE 1.4 mph /  2.3 km/h 9.7 mph /  15.6 km/h 98 % 0.0 in /  0 mm
11:20 3.7 °F /  -15.7 °C 3.4 °F /  -15.9 °C 1016.1 in /  34405.1 hPa NE 7.9 mph /  12.7 km/h 9.7 mph /  15.6 km/h 98 % 0.0 in /  0 mm
11:26 3.8 °F /  -15.7 °C 3.5 °F /  -15.8 °C 1016.1 in /  34405.1 hPa ENE 1.4 mph /  2.3 km/h 9.7 mph /  15.6 km/h 98 % 0.0 in /  0 mm
11:32 3.8 °F /  -15.7 °C 3.4 °F /  -15.9 °C 1016.1 in /  34405.1 hPa NNE 11.1 mph /  17.9 km/h 12.9 mph /  20.8 km/h 97 % 0.0 in /  0 mm
11:38 3.9 °F /  -15.6 °C 3.5 °F /  -15.8 °C 1016.1 in /  34405.1 hPa NE 3.2 mph /  5.1 km/h 8.0 mph /  12.9 km/h 97 % 0.0 in /  0 mm
11:44 4.0 °F /  -15.6 °C 3.6 °F /  -15.8 °C 1016.1 in /  34405.1 hPa NE 7.9 mph /  12.7 km/h 14.5 mph /  23.3 km/h 97 % 0.0 in /  0 mm
11:50 4.1 °F /  -15.5 °C 3.5 °F /  -15.8 °C 1016.1 in /  34405.1 hPa North 6.4 mph /  10.3 km/h 11.3 mph /  18.2 km/h 96 % 0.0 in /  0 mm
11:56 4.2 °F /  -15.4 °C 3.6 °F /  -15.8 °C 1016.1 in /  34405.1 hPa Calm   6.4 mph /  10.3 km/h 96 % 0.0 in /  0 mm
12:02 4.2 °F /  -15.4 °C 3.6 °F /  -15.8 °C 1016.1 in /  34405.1 hPa North 9.7 mph /  15.6 km/h 9.7 mph /  15.6 km/h 96 % 0.0 in /  0 mm
12:08 4.2 °F /  -15.4 °C 3.5 °F /  -15.8 °C 1016.5 in /  34418.7 hPa NNE 9.7 mph /  15.6 km/h 17.7 mph /  28.5 km/h 95 % 0.0 in /  0 mm
12:14 4.3 °F /  -15.4 °C 3.6 °F /  -15.8 °C 1016.5 in /  34418.7 hPa NNW 7.9 mph /  12.7 km/h 12.9 mph /  20.8 km/h 95 % 0.0 in /  0 mm
12:20 4.4 °F /  -15.3 °C 3.5 °F /  -15.8 °C 1016.5 in /  34418.7 hPa NNE 4.7 mph /  7.6 km/h 16.1 mph /  25.9 km/h 94 % 0.0 in /  0 mm
12:26 4.5 °F /  -15.3 °C 3.6 °F /  -15.8 °C 1016.5 in /  34418.7 hPa NNW 6.4 mph /  10.3 km/h 11.3 mph /  18.2 km/h 94 % 0.0 in /  0 mm
12:32 4.7 °F /  -15.2 °C 3.8 °F /  -15.7 °C 1016.5 in /  34418.7 hPa NNW 14.3 mph /  23 km/h 14.5 mph /  23.3 km/h 94 % 0.0 in /  0 mm
12:38 4.7 °F /  -15.2 °C 3.7 °F /  -15.7 °C 1016.1 in /  34405.1 hPa NW 3.2 mph /  5.1 km/h 11.3 mph /  18.2 km/h 93 % 0.0 in /  0 mm
12:44 4.7 °F /  -15.2 °C 3.5 °F /  -15.8 °C 1016.1 in /  34405.1 hPa North 3.2 mph /  5.1 km/h 14.5 mph /  23.3 km/h 92 % 0.0 in /  0 mm
12:50 4.8 °F /  -15.1 °C 3.6 °F /  -15.8 °C 1016.5 in /  34418.7 hPa NNW 9.7 mph /  15.6 km/h 16.1 mph /  25.9 km/h 92 % 0.0 in /  0 mm
12:57 4.7 °F /  -15.2 °C 3.7 °F /  -15.7 °C 1016.1 in /  34405.1 hPa NNE 1.4 mph /  2.3 km/h 8.0 mph /  12.9 km/h 93 % 0.0 in /  0 mm
13:03 4.8 °F /  -15.1 °C 3.8 °F /  -15.7 °C 1015.8 in /  34395 hPa NNW 4.7 mph /  7.6 km/h 11.3 mph /  18.2 km/h 93 % 0.0 in /  0 mm
13:09 4.8 °F /  -15.1 °C 3.8 °F /  -15.7 °C 1015.8 in /  34395 hPa NNW 3.2 mph /  5.1 km/h 9.7 mph /  15.6 km/h 93 % 0.0 in /  0 mm
13:15 4.8 °F /  -15.1 °C 3.8 °F /  -15.7 °C 1015.8 in /  34395 hPa NNW 7.9 mph /  12.7 km/h 14.5 mph /  23.3 km/h 93 % 0.0 in /  0 mm
13:21 4.8 °F /  -15.1 °C 3.6 °F /  -15.8 °C 1015.8 in /  34395 hPa North 7.9 mph /  12.7 km/h 14.5 mph /  23.3 km/h 92 % 0.0 in /  0 mm
13:27 4.7 °F /  -15.2 °C 3.5 °F /  -15.8 °C 1015.8 in /  34395 hPa North 4.7 mph /  7.6 km/h 14.5 mph /  23.3 km/h 92 % 0.0 in /  0 mm
13:33 4.8 °F /  -15.1 °C 3.8 °F /  -15.7 °C 1016.1 in /  34405.1 hPa NNW 11.1 mph /  17.9 km/h 14.5 mph /  23.3 km/h 93 % 0.0 in /  0 mm
13:39 4.9 °F /  -15.1 °C 3.6 °F /  -15.8 °C 1016.1 in /  34405.1 hPa NNE 6.4 mph /  10.3 km/h 12.9 mph /  20.8 km/h 91 % 0.0 in /  0 mm
13:45 4.9 °F /  -15.1 °C 3.4 °F /  -15.9 °C 1016.1 in /  34405.1 hPa North 7.9 mph /  12.7 km/h 17.7 mph /  28.5 km/h 90 % 0.0 in /  0 mm
13:51 5.0 °F /  -15 °C 3.7 °F /  -15.7 °C 1016.1 in /  34405.1 hPa North 7.9 mph /  12.7 km/h 8.0 mph /  12.9 km/h 91 % 0.0 in /  0 mm
13:57 5.1 °F /  -14.9 °C 3.4 °F /  -15.9 °C 1016.1 in /  34405.1 hPa NE 9.7 mph /  15.6 km/h 17.7 mph /  28.5 km/h 89 % 0.0 in /  0 mm
14:03 5.1 °F /  -14.9 °C 3.6 °F /  -15.8 °C 1016.1 in /  34405.1 hPa North 6.4 mph /  10.3 km/h 12.9 mph /  20.8 km/h 90 % 0.0 in /  0 mm
14:09 5.2 °F /  -14.9 °C 3.5 °F /  -15.8 °C 1016.1 in /  34405.1 hPa North 4.7 mph /  7.6 km/h 14.5 mph /  23.3 km/h 89 % 0.0 in /  0 mm
14:15 5.3 °F /  -14.8 °C 3.5 °F /  -15.8 °C 1016.1 in /  34405.1 hPa NNE 3.2 mph /  5.1 km/h 17.7 mph /  28.5 km/h 88 % 0.0 in /  0 mm
14:21 5.2 °F /  -14.9 °C 3.4 °F /  -15.9 °C 1016.1 in /  34405.1 hPa NNE 6.4 mph /  10.3 km/h 19.3 mph /  31.1 km/h 88 % 0.0 in /  0 mm
14:27 5.3 °F /  -14.8 °C 3.6 °F /  -15.8 °C 1016.1 in /  34405.1 hPa NNE 11.1 mph /  17.9 km/h 16.1 mph /  25.9 km/h 89 % 0.0 in /  0 mm
14:33 5.4 °F /  -14.8 °C 3.4 °F /  -15.9 °C 1016.1 in /  34405.1 hPa North 7.9 mph /  12.7 km/h 17.7 mph /  28.5 km/h 87 % 0.0 in /  0 mm
14:39 5.4 °F /  -14.8 °C 3.2 °F /  -16 °C 1016.1 in /  34405.1 hPa NW 1.4 mph /  2.3 km/h 11.3 mph /  18.2 km/h 86 % 0.0 in /  0 mm
14:45 5.3 °F /  -14.8 °C 3.1 °F /  -16.1 °C 1016.5 in /  34418.7 hPa North 11.1 mph /  17.9 km/h 16.1 mph /  25.9 km/h 86 % 0.0 in /  0 mm
14:51 5.3 °F /  -14.8 °C 3.1 °F /  -16.1 °C 1016.1 in /  34405.1 hPa NNE 13.0 mph /  20.9 km/h 19.3 mph /  31.1 km/h 86 % 0.0 in /  0 mm
14:57 5.4 °F /  -14.8 °C 2.9 °F /  -16.2 °C 1016.1 in /  34405.1 hPa NNW 13.0 mph /  20.9 km/h 19.3 mph /  31.1 km/h 84 % 0.0 in /  0 mm
15:03 5.4 °F /  -14.8 °C 2.9 °F /  -16.2 °C 1016.1 in /  34405.1 hPa NNE 13.0 mph /  20.9 km/h 16.1 mph /  25.9 km/h 84 % 0.0 in /  0 mm
15:09 5.7 °F /  -14.6 °C 3.0 °F /  -16.1 °C 1016.1 in /  34405.1 hPa NNW 7.9 mph /  12.7 km/h 14.5 mph /  23.3 km/h 83 % 0.0 in /  0 mm
15:15 5.8 °F /  -14.6 °C 3.0 °F /  -16.1 °C 1016.1 in /  34405.1 hPa NNE 9.7 mph /  15.6 km/h 16.1 mph /  25.9 km/h 82 % 0.0 in /  0 mm
15:21 5.9 °F /  -14.5 °C 3.1 °F /  -16.1 °C 1016.1 in /  34405.1 hPa NNW 13.0 mph /  20.9 km/h 22.5 mph /  36.2 km/h 82 % 0.0 in /  0 mm
15:27 5.6 °F /  -14.7 °C 2.6 °F /  -16.3 °C 1016.1 in /  34405.1 hPa North 14.3 mph /  23 km/h 14.5 mph /  23.3 km/h 81 % 0.0 in /  0 mm
15:33 5.6 °F /  -14.7 °C 2.6 °F /  -16.3 °C 1016.1 in /  34405.1 hPa NNE 4.7 mph /  7.6 km/h 14.5 mph /  23.3 km/h 81 % 0.0 in /  0 mm
15:39 5.7 °F /  -14.6 °C 2.9 °F /  -16.2 °C 1016.1 in /  34405.1 hPa NNE 9.7 mph /  15.6 km/h 14.5 mph /  23.3 km/h 82 % 0.0 in /  0 mm
15:45 5.9 °F /  -14.5 °C 3.2 °F /  -16 °C 1015.8 in /  34395 hPa NNE 11.1 mph /  17.9 km/h 12.9 mph /  20.8 km/h 83 % 0.0 in /  0 mm
15:51 5.9 °F /  -14.5 °C 2.5 °F /  -16.4 °C 1015.8 in /  34395 hPa NNW 6.4 mph /  10.3 km/h 12.9 mph /  20.8 km/h 79 % 0.0 in /  0 mm
15:57 6.0 °F /  -14.4 °C 2.6 °F /  -16.3 °C 1015.8 in /  34395 hPa NNW 6.4 mph /  10.3 km/h 9.7 mph /  15.6 km/h 79 % 0.0 in /  0 mm
16:03 6.1 °F /  -14.4 °C 2.6 °F /  -16.3 °C 1015.8 in /  34395 hPa North 1.4 mph /  2.3 km/h 11.3 mph /  18.2 km/h 78 % 0.0 in /  0 mm
16:09 6.2 °F /  -14.3 °C 2.8 °F /  -16.2 °C 1015.8 in /  34395 hPa NW 9.7 mph /  15.6 km/h 12.9 mph /  20.8 km/h 79 % 0.0 in /  0 mm
16:15 6.3 °F /  -14.3 °C 2.9 °F /  -16.2 °C 1015.8 in /  34395 hPa North 6.4 mph /  10.3 km/h 14.5 mph /  23.3 km/h 79 % 0.0 in /  0 mm
16:21 6.2 °F /  -14.3 °C 2.8 °F /  -16.2 °C 1015.8 in /  34395 hPa NW 9.7 mph /  15.6 km/h 16.1 mph /  25.9 km/h 79 % 0.0 in /  0 mm
16:27 6.2 °F /  -14.3 °C 2.6 °F /  -16.3 °C 1015.8 in /  34395 hPa NNW 7.9 mph /  12.7 km/h 14.5 mph /  23.3 km/h 78 % 0.0 in /  0 mm
16:33 6.2 °F /  -14.3 °C 2.1 °F /  -16.6 °C 1015.8 in /  34395 hPa North 7.9 mph /  12.7 km/h 12.9 mph /  20.8 km/h 75 % 0.0 in /  0 mm
16:39 6.2 °F /  -14.3 °C 2.5 °F /  -16.4 °C 1015.8 in /  34395 hPa NNE 4.7 mph /  7.6 km/h 11.3 mph /  18.2 km/h 77 % 0.0 in /  0 mm
16:45 6.1 °F /  -14.4 °C 2.2 °F /  -16.6 °C 1015.8 in /  34395 hPa NNW 7.9 mph /  12.7 km/h 11.3 mph /  18.2 km/h 76 % 0.0 in /  0 mm
16:51 6.1 °F /  -14.4 °C 2.4 °F /  -16.4 °C 1015.8 in /  34395 hPa NW 1.4 mph /  2.3 km/h 8.0 mph /  12.9 km/h 77 % 0.0 in /  0 mm
16:57 5.9 °F /  -14.5 °C 2.4 °F /  -16.4 °C 1015.8 in /  34395 hPa North 3.2 mph /  5.1 km/h 8.0 mph /  12.9 km/h 78 % 0.0 in /  0 mm
17:03 5.9 °F /  -14.5 °C 2.5 °F /  -16.4 °C 1015.8 in /  34395 hPa NW 7.9 mph /  12.7 km/h 11.3 mph /  18.2 km/h 79 % 0.0 in /  0 mm
17:09 5.8 °F /  -14.6 °C 2.4 °F /  -16.4 °C 1015.8 in /  34395 hPa NNW 4.7 mph /  7.6 km/h 8.0 mph /  12.9 km/h 79 % 0.0 in /  0 mm
17:15 5.8 °F /  -14.6 °C 2.3 °F /  -16.5 °C 1015.8 in /  34395 hPa North 7.9 mph /  12.7 km/h 12.9 mph /  20.8 km/h 78 % 0.0 in /  0 mm
17:21 5.8 °F /  -14.6 °C 2.4 °F /  -16.4 °C 1016.1 in /  34405.1 hPa WNW 1.4 mph /  2.3 km/h 8.0 mph /  12.9 km/h 79 % 0.0 in /  0 mm
17:27 5.7 °F /  -14.6 °C 2.7 °F /  -16.3 °C 1016.1 in /  34405.1 hPa NW 6.4 mph /  10.3 km/h 9.7 mph /  15.6 km/h 81 % 0.0 in /  0 mm
17:33 5.7 °F /  -14.6 °C 2.7 °F /  -16.3 °C 1016.1 in /  34405.1 hPa North 1.4 mph /  2.3 km/h 9.7 mph /  15.6 km/h 81 % 0.0 in /  0 mm
17:39 5.6 °F /  -14.7 °C 2.8 °F /  -16.2 °C 1016.1 in /  34405.1 hPa NW 3.2 mph /  5.1 km/h 8.0 mph /  12.9 km/h 82 % 0.0 in /  0 mm
17:45 5.5 °F /  -14.7 °C 2.8 °F /  -16.2 °C 1016.1 in /  34405.1 hPa NW 1.4 mph /  2.3 km/h 9.7 mph /  15.6 km/h 83 % 0.0 in /  0 mm
17:51 5.4 °F /  -14.8 °C 2.7 °F /  -16.3 °C 1016.1 in /  34405.1 hPa NNW 6.4 mph /  10.3 km/h 11.3 mph /  18.2 km/h 83 % 0.0 in /  0 mm
17:57 5.3 °F /  -14.8 °C 2.6 °F /  -16.3 °C 1016.1 in /  34405.1 hPa NW 3.2 mph /  5.1 km/h 12.9 mph /  20.8 km/h 83 % 0.0 in /  0 mm
18:03 5.3 °F /  -14.8 °C 2.8 °F /  -16.2 °C 1016.1 in /  34405.1 hPa NW 3.2 mph /  5.1 km/h 8.0 mph /  12.9 km/h 84 % 0.0 in /  0 mm
18:09 5.2 °F /  -14.9 °C 2.7 °F /  -16.3 °C 1016.1 in /  34405.1 hPa NNW 1.4 mph /  2.3 km/h 9.7 mph /  15.6 km/h 84 % 0.0 in /  0 mm
18:15 5.1 °F /  -14.9 °C 2.6 °F /  -16.3 °C 1016.1 in /  34405.1 hPa NW 4.7 mph /  7.6 km/h 8.0 mph /  12.9 km/h 84 % 0.0 in /  0 mm
18:21 5.0 °F /  -15 °C 2.7 °F /  -16.3 °C 1016.1 in /  34405.1 hPa WNW 1.4 mph /  2.3 km/h 6.4 mph /  10.3 km/h 85 % 0.0 in /  0 mm
18:27 4.9 °F /  -15.1 °C 2.6 °F /  -16.3 °C 1016.1 in /  34405.1 hPa NNW 6.4 mph /  10.3 km/h 9.7 mph /  15.6 km/h 85 % 0.0 in /  0 mm
18:33 4.9 °F /  -15.1 °C 2.6 °F /  -16.3 °C 1016.1 in /  34405.1 hPa NW 7.9 mph /  12.7 km/h 8.0 mph /  12.9 km/h 85 % 0.0 in /  0 mm
18:39 4.8 °F /  -15.1 °C 2.7 °F /  -16.3 °C 1016.1 in /  34405.1 hPa North 4.7 mph /  7.6 km/h 11.3 mph /  18.2 km/h 86 % 0.0 in /  0 mm
18:45 4.8 °F /  -15.1 °C 2.7 °F /  -16.3 °C 1016.1 in /  34405.1 hPa North 4.7 mph /  7.6 km/h 9.7 mph /  15.6 km/h 86 % 0.0 in /  0 mm
18:51 4.7 °F /  -15.2 °C 2.6 °F /  -16.3 °C 1016.5 in /  34418.7 hPa NNW 3.2 mph /  5.1 km/h 6.4 mph /  10.3 km/h 86 % 0.0 in /  0 mm
18:57 4.7 °F /  -15.2 °C 2.7 °F /  -16.3 °C 1016.5 in /  34418.7 hPa WNW 1.4 mph /  2.3 km/h 4.8 mph /  7.7 km/h 87 % 0.0 in /  0 mm
19:03 4.6 °F /  -15.2 °C 2.8 °F /  -16.2 °C 1016.5 in /  34418.7 hPa West 4.7 mph /  7.6 km/h 8.0 mph /  12.9 km/h 88 % 0.0 in /  0 mm
19:09 4.5 °F /  -15.3 °C 2.7 °F /  -16.3 °C 1016.5 in /  34418.7 hPa NW 6.4 mph /  10.3 km/h 16.1 mph /  25.9 km/h 88 % 0.0 in /  0 mm
19:15 4.5 °F /  -15.3 °C 2.7 °F /  -16.3 °C 1016.1 in /  34405.1 hPa NNW 1.4 mph /  2.3 km/h 9.7 mph /  15.6 km/h 88 % 0.0 in /  0 mm
19:21 4.4 °F /  -15.3 °C 2.6 °F /  -16.3 °C 1016.1 in /  34405.1 hPa NW 7.9 mph /  12.7 km/h 8.0 mph /  12.9 km/h 88 % 0.0 in /  0 mm
19:27 4.4 °F /  -15.3 °C 2.6 °F /  -16.3 °C 1016.1 in /  34405.1 hPa NNW 6.4 mph /  10.3 km/h 9.7 mph /  15.6 km/h 88 % 0.0 in /  0 mm
19:33 4.4 °F /  -15.3 °C 2.6 °F /  -16.3 °C 1016.1 in /  34405.1 hPa North 7.9 mph /  12.7 km/h 8.0 mph /  12.9 km/h 88 % 0.0 in /  0 mm
19:39 4.4 °F /  -15.3 °C 2.6 °F /  -16.3 °C 1016.1 in /  34405.1 hPa NNW 4.7 mph /  7.6 km/h 6.4 mph /  10.3 km/h 88 % 0.0 in /  0 mm
19:45 4.3 °F /  -15.4 °C 2.5 °F /  -16.4 °C 1016.1 in /  34405.1 hPa North 1.4 mph /  2.3 km/h 8.0 mph /  12.9 km/h 88 % 0.0 in /  0 mm
19:51 4.3 °F /  -15.4 °C 2.6 °F /  -16.3 °C 1016.1 in /  34405.1 hPa NNE 6.4 mph /  10.3 km/h 8.0 mph /  12.9 km/h 89 % 0.0 in /  0 mm
19:57 4.3 °F /  -15.4 °C 2.6 °F /  -16.3 °C 1016.1 in /  34405.1 hPa North 4.7 mph /  7.6 km/h 6.4 mph /  10.3 km/h 89 % 0.0 in /  0 mm
20:03 4.2 °F /  -15.4 °C 2.5 °F /  -16.4 °C 1016.5 in /  34418.7 hPa North 3.2 mph /  5.1 km/h 6.4 mph /  10.3 km/h 89 % 0.0 in /  0 mm
20:09 4.2 °F /  -15.4 °C 2.5 °F /  -16.4 °C 1016.5 in /  34418.7 hPa North 6.4 mph /  10.3 km/h 6.4 mph /  10.3 km/h 89 % 0.0 in /  0 mm
20:15 4.3 °F /  -15.4 °C 2.6 °F /  -16.3 °C 1016.5 in /  34418.7 hPa North 3.2 mph /  5.1 km/h 8.0 mph /  12.9 km/h 89 % 0.0 in /  0 mm
20:21 4.3 °F /  -15.4 °C 2.5 °F /  -16.4 °C 1016.1 in /  34405.1 hPa NNE 7.9 mph /  12.7 km/h 11.3 mph /  18.2 km/h 88 % 0.0 in /  0 mm
20:27 4.3 °F /  -15.4 °C 2.6 °F /  -16.3 °C 1016.5 in /  34418.7 hPa NNE 4.7 mph /  7.6 km/h 6.4 mph /  10.3 km/h 89 % 0.0 in /  0 mm
20:33 4.3 °F /  -15.4 °C 2.6 °F /  -16.3 °C 1016.5 in /  34418.7 hPa North 4.7 mph /  7.6 km/h 11.3 mph /  18.2 km/h 89 % 0.0 in /  0 mm
20:39 4.2 °F /  -15.4 °C 2.5 °F /  -16.4 °C 1016.5 in /  34418.7 hPa NE 9.7 mph /  15.6 km/h 11.3 mph /  18.2 km/h 89 % 0.0 in /  0 mm
20:45 4.2 °F /  -15.4 °C 2.5 °F /  -16.4 °C 1016.5 in /  34418.7 hPa NE 1.4 mph /  2.3 km/h 16.1 mph /  25.9 km/h 89 % 0.0 in /  0 mm
20:51 4.2 °F /  -15.4 °C 2.7 °F /  -16.3 °C 1016.5 in /  34418.7 hPa ENE 1.4 mph /  2.3 km/h 8.0 mph /  12.9 km/h 90 % 0.0 in /  0 mm
20:57 4.1 °F /  -15.5 °C 2.5 °F /  -16.4 °C 1016.5 in /  34418.7 hPa NE 3.2 mph /  5.1 km/h 4.8 mph /  7.7 km/h 89 % 0.0 in /  0 mm
21:03 4.1 °F /  -15.5 °C 2.5 °F /  -16.4 °C 1016.5 in /  34418.7 hPa NNE 1.4 mph /  2.3 km/h 11.3 mph /  18.2 km/h 89 % 0.0 in /  0 mm
21:09 4.1 °F /  -15.5 °C 2.5 °F /  -16.4 °C 1016.8 in /  34428.8 hPa NNE 1.4 mph /  2.3 km/h 9.7 mph /  15.6 km/h 89 % 0.0 in /  0 mm
21:15 4.0 °F /  -15.6 °C 2.2 °F /  -16.6 °C 1016.5 in /  34418.7 hPa NE 6.4 mph /  10.3 km/h 9.7 mph /  15.6 km/h 88 % 0.0 in /  0 mm
21:21 3.9 °F /  -15.6 °C 1.8 °F /  -16.8 °C 1016.8 in /  34428.8 hPa NNE 9.7 mph /  15.6 km/h 11.3 mph /  18.2 km/h 86 % 0.0 in /  0 mm
21:27 3.9 °F /  -15.6 °C 1.4 °F /  -17 °C 1016.8 in /  34428.8 hPa NE 1.4 mph /  2.3 km/h 8.0 mph /  12.9 km/h 84 % 0.0 in /  0 mm
21:33 3.9 °F /  -15.6 °C 1.3 °F /  -17.1 °C 1016.8 in /  34428.8 hPa NNE 13.0 mph /  20.9 km/h 16.1 mph /  25.9 km/h 83 % 0.0 in /  0 mm
21:39 3.9 °F /  -15.6 °C 1.3 °F /  -17.1 °C 1016.8 in /  34428.8 hPa NE 11.1 mph /  17.9 km/h 11.3 mph /  18.2 km/h 83 % 0.0 in /  0 mm
21:45 3.8 °F /  -15.7 °C 1.0 °F /  -17.2 °C 1016.8 in /  34428.8 hPa NNE 4.7 mph /  7.6 km/h 11.3 mph /  18.2 km/h 82 % 0.0 in /  0 mm
21:51 3.8 °F /  -15.7 °C 1.0 °F /  -17.2 °C 1016.8 in /  34428.8 hPa NNE 4.7 mph /  7.6 km/h 9.7 mph /  15.6 km/h 82 % 0.0 in /  0 mm
21:57 3.7 °F /  -15.7 °C 0.9 °F /  -17.3 °C 1016.8 in /  34428.8 hPa NNE 7.9 mph /  12.7 km/h 14.5 mph /  23.3 km/h 82 % 0.0 in /  0 mm
22:03 3.7 °F /  -15.7 °C 0.7 °F /  -17.4 °C 1016.8 in /  34428.8 hPa NE 9.7 mph /  15.6 km/h 17.7 mph /  28.5 km/h 81 % 0.0 in /  0 mm
22:13 3.6 °F /  -15.8 °C 0.5 °F /  -17.5 °C 1016.8 in /  34428.8 hPa ENE 6.4 mph /  10.3 km/h 16.1 mph /  25.9 km/h 80 % 0.0 in /  0 mm
22:19 3.5 °F /  -15.8 °C 0.4 °F /  -17.6 °C 1016.8 in /  34428.8 hPa NE 13.0 mph /  20.9 km/h 16.1 mph /  25.9 km/h 80 % 0.0 in /  0 mm
22:25 3.4 °F /  -15.9 °C 0.3 °F /  -17.6 °C 1017.2 in /  34442.4 hPa NNE 14.3 mph /  23 km/h 14.5 mph /  23.3 km/h 80 % 0.0 in /  0 mm
22:31 3.3 °F /  -15.9 °C 0.2 °F /  -17.7 °C 1017.2 in /  34442.4 hPa North 9.7 mph /  15.6 km/h 14.5 mph /  23.3 km/h 80 % 0.0 in /  0 mm
22:37 3.3 °F /  -15.9 °C 0.2 °F /  -17.7 °C 1017.2 in /  34442.4 hPa NE 9.7 mph /  15.6 km/h 17.7 mph /  28.5 km/h 80 % 0.0 in /  0 mm
22:43 3.3 °F /  -15.9 °C 0.2 °F /  -17.7 °C 1017.2 in /  34442.4 hPa NE 14.3 mph /  23 km/h 17.7 mph /  28.5 km/h 80 % 0.0 in /  0 mm
22:49 3.2 °F /  -16 °C 0.1 °F /  -17.7 °C 1017.2 in /  34442.4 hPa North 4.7 mph /  7.6 km/h 16.1 mph /  25.9 km/h 80 % 0.0 in /  0 mm
22:55 3.1 °F /  -16.1 °C 0.0 °F /  -17.8 °C 1016.8 in /  34428.8 hPa NE 14.3 mph /  23 km/h 14.5 mph /  23.3 km/h 80 % 0.0 in /  0 mm
23:01 3.1 °F /  -16.1 °C 0.0 °F /  -17.8 °C 1016.8 in /  34428.8 hPa NE 7.9 mph /  12.7 km/h 14.5 mph /  23.3 km/h 80 % 0.0 in /  0 mm
23:07 2.9 °F /  -16.2 °C 0.0 °F /  -17.8 °C 1016.8 in /  34428.8 hPa NE 9.7 mph /  15.6 km/h 17.7 mph /  28.5 km/h 81 % 0.0 in /  0 mm
23:14 2.8 °F /  -16.2 °C -0.1 °F /  -17.8 °C 1016.8 in /  34428.8 hPa NNE 6.4 mph /  10.3 km/h 14.5 mph /  23.3 km/h 81 % 0.0 in /  0 mm
23:20 2.7 °F /  -16.3 °C -0.1 °F /  -17.8 °C 1017.2 in /  34442.4 hPa NE 9.7 mph /  15.6 km/h 12.9 mph /  20.8 km/h 82 % 0.0 in /  0 mm
23:26 2.6 °F /  -16.3 °C -0.2 °F /  -17.9 °C 1017.2 in /  34442.4 hPa NNE 13.0 mph /  20.9 km/h 16.1 mph /  25.9 km/h 82 % 0.0 in /  0 mm
23:32 2.5 °F /  -16.4 °C -0.1 °F /  -17.8 °C 1017.2 in /  34442.4 hPa NE 6.4 mph /  10.3 km/h 14.5 mph /  23.3 km/h 83 % 0.0 in /  0 mm
23:38 2.4 °F /  -16.4 °C -0.2 °F /  -17.9 °C 1017.5 in /  34452.6 hPa NNW 3.2 mph /  5.1 km/h 8.0 mph /  12.9 km/h 83 % 0.0 in /  0 mm
23:44 2.4 °F /  -16.4 °C -0.2 °F /  -17.9 °C 1017.5 in /  34452.6 hPa NNE 7.9 mph /  12.7 km/h 16.1 mph /  25.9 km/h 83 % 0.0 in /  0 mm
23:50 2.3 °F /  -16.5 °C -0.1 °F /  -17.8 °C 1017.5 in /  34452.6 hPa ENE 4.7 mph /  7.6 km/h 12.9 mph /  20.8 km/h 84 % 0.0 in /  0 mm
23:56 2.3 °F /  -16.5 °C -0.1 °F /  -17.8 °C 1017.5 in /  34452.6 hPa NNW 4.7 mph /  7.6 km/h 17.7 mph /  28.5 km/h 84 % 0.0 in /  0 mm
Meteo18
Compliments of Weather Underground - 4 mb

Script developed by  Jim McMurry - jmcmurry@mwt.net Adapted for the template by  Wim van der Kuil - Leuven-Template.eu

You find our weather info also at:

European Weather Network

Weather Underground

Equipment we use:

Weather-station
Davis Vue

Weather-program
Meteobridge

Weather-server
Raspberry PI 2 B+

Provider
1 and 1

Davis Vue

Meteobridge

Raspberry PI 2 B+

1 and 1